createdAt,value
2022-07-28T00:00:16.697Z,28.24
2022-07-28T00:02:43.135Z,28.24
2022-07-28T00:05:09.551Z,28.25
2022-07-28T00:07:35.981Z,28.24
2022-07-28T00:10:02.342Z,28.25
2022-07-28T00:12:28.705Z,28.25
2022-07-28T00:14:55.140Z,28.24
2022-07-28T00:17:21.538Z,28.23
2022-07-28T00:19:47.916Z,28.21
2022-07-28T00:22:14.276Z,28.19
2022-07-28T00:24:40.667Z,28.18
2022-07-28T00:27:07.050Z,28.16
2022-07-28T00:29:49.938Z,28.13
2022-07-28T00:31:59.912Z,28.09
2022-07-28T00:34:26.577Z,28.05
2022-07-28T00:36:52.693Z,28.04
2022-07-28T00:39:19.091Z,28.01
2022-07-28T00:41:45.451Z,27.97
2022-07-28T00:44:12.215Z,27.91
2022-07-28T00:46:38.256Z,27.87
2022-07-28T00:49:04.646Z,27.73
2022-07-28T00:51:31.022Z,27.70
2022-07-28T00:53:57.459Z,27.68
2022-07-28T00:56:23.825Z,27.62
2022-07-28T00:58:50.326Z,27.53
2022-07-28T01:01:16.851Z,27.50
2022-07-28T01:03:43.147Z,27.48
2022-07-28T01:06:09.613Z,27.34
2022-07-28T01:08:35.989Z,27.20
2022-07-28T01:11:02.353Z,27.14
2022-07-28T01:13:30.123Z,27.11
2022-07-28T01:15:55.173Z,27.10
2022-07-28T01:18:21.590Z,27.07
2022-07-28T01:20:48.060Z,26.97
2022-07-28T01:23:14.451Z,26.95
2022-07-28T01:25:40.828Z,26.92
2022-07-28T01:28:07.218Z,26.87
2022-07-28T01:30:33.645Z,26.90
2022-07-28T01:33:00.059Z,26.87
2022-07-28T01:35:26.512Z,26.84
2022-07-28T01:37:52.878Z,26.86
2022-07-28T01:40:19.378Z,26.85
2022-07-28T01:42:45.779Z,26.87
2022-07-28T01:45:12.243Z,26.86
2022-07-28T01:47:38.605Z,26.83
2022-07-28T01:50:05.108Z,26.77
2022-07-28T01:52:31.544Z,26.79
2022-07-28T01:54:57.976Z,26.78
2022-07-28T01:57:24.384Z,26.74
2022-07-28T01:59:50.758Z,26.76
2022-07-28T02:02:17.147Z,26.76
2022-07-28T02:04:43.688Z,26.72
2022-07-28T02:07:10.038Z,26.71
2022-07-28T02:09:36.409Z,26.67
2022-07-28T02:12:02.823Z,26.70
2022-07-28T02:14:29.196Z,26.70
2022-07-28T02:16:55.587Z,26.67
2022-07-28T02:19:22.103Z,26.67
2022-07-28T02:21:48.487Z,26.70
2022-07-28T02:24:15.433Z,26.65
2022-07-28T02:26:41.384Z,26.65
2022-07-28T02:29:07.746Z,26.64
2022-07-28T02:31:34.227Z,26.74
2022-07-28T02:34:02.063Z,26.89
2022-07-28T02:36:26.902Z,26.90
2022-07-28T02:38:53.273Z,26.83
2022-07-28T02:41:19.639Z,26.75
2022-07-28T02:43:49.548Z,26.69
2022-07-28T02:46:12.448Z,26.65
2022-07-28T02:48:38.818Z,26.65
2022-07-28T02:51:05.208Z,26.62
2022-07-28T02:53:31.651Z,26.58
2022-07-28T02:55:58.014Z,26.57
2022-07-28T02:58:24.516Z,26.52
2022-07-28T03:00:50.882Z,26.51
2022-07-28T03:03:17.534Z,26.54
2022-07-28T03:05:43.898Z,26.52
2022-07-28T03:08:10.468Z,26.55
2022-07-28T03:10:36.881Z,26.52
2022-07-28T03:13:03.310Z,26.51
2022-07-28T03:15:29.649Z,26.46
2022-07-28T03:17:56.040Z,26.39
2022-07-28T03:20:22.405Z,26.29
2022-07-28T03:22:48.777Z,26.19
2022-07-28T03:25:15.194Z,26.11
2022-07-28T03:27:41.557Z,26.02
2022-07-28T03:30:07.923Z,25.96
2022-07-28T03:32:34.313Z,25.88
2022-07-28T03:35:00.702Z,25.83
2022-07-28T03:37:27.071Z,25.79
2022-07-28T03:39:53.460Z,25.70
2022-07-28T03:42:19.904Z,25.65
2022-07-28T03:44:46.268Z,25.57
2022-07-28T03:47:12.639Z,25.50
2022-07-28T03:49:39.029Z,25.35
2022-07-28T03:52:05.399Z,24.92
2022-07-28T03:54:31.856Z,24.91
2022-07-28T03:56:58.232Z,24.71
2022-07-28T03:59:24.605Z,24.10
2022-07-28T04:01:51.197Z,23.62
2022-07-28T04:04:17.892Z,23.15
2022-07-28T04:06:43.930Z,22.97
2022-07-28T04:09:10.349Z,23.01
2022-07-28T04:11:36.726Z,23.24
2022-07-28T04:14:03.123Z,23.79
2022-07-28T04:16:29.625Z,24.16
2022-07-28T04:18:55.989Z,24.48
2022-07-28T04:21:22.360Z,24.68
2022-07-28T04:23:48.746Z,24.85
2022-07-28T04:26:15.185Z,25.00
2022-07-28T04:28:41.619Z,25.15
2022-07-28T04:31:08.084Z,25.27
2022-07-28T04:33:34.403Z,25.38
2022-07-28T04:36:00.780Z,25.54
2022-07-28T04:38:27.246Z,25.56
2022-07-28T04:40:53.614Z,25.54
2022-07-28T04:43:19.975Z,25.46
2022-07-28T04:45:54.178Z,25.41
2022-07-28T04:48:12.735Z,25.38
2022-07-28T04:50:39.202Z,25.34
2022-07-28T04:53:05.644Z,25.34
2022-07-28T04:55:32.012Z,25.35
2022-07-28T04:57:58.508Z,25.34
2022-07-28T05:00:24.874Z,25.32
2022-07-28T05:02:51.281Z,25.29
2022-07-28T05:05:17.802Z,25.28
2022-07-28T05:07:44.130Z,25.36
2022-07-28T05:10:10.497Z,25.41
2022-07-28T05:12:36.914Z,25.38
2022-07-28T05:15:03.291Z,25.46
2022-07-28T05:17:29.772Z,25.50
2022-07-28T05:19:56.207Z,25.42
2022-07-28T05:22:22.593Z,25.35
2022-07-28T05:24:49.060Z,25.28
2022-07-28T05:27:15.452Z,25.35
2022-07-28T05:29:47.036Z,25.49
2022-07-28T05:32:08.201Z,25.61
2022-07-28T05:34:34.602Z,25.59
2022-07-28T05:37:00.978Z,25.59
2022-07-28T05:39:27.457Z,25.51
2022-07-28T05:41:53.763Z,25.49
2022-07-28T05:44:20.154Z,25.50
2022-07-28T05:46:46.513Z,25.49
2022-07-28T05:49:13.025Z,25.51
2022-07-28T05:51:41.821Z,25.59
2022-07-28T05:54:05.655Z,25.60
2022-07-28T05:56:32.086Z,25.57
2022-07-28T05:58:58.447Z,25.60
2022-07-28T06:01:24.851Z,25.64
2022-07-28T06:04:09.993Z,25.65
2022-07-28T06:06:17.597Z,25.68
2022-07-28T06:08:43.982Z,25.70
2022-07-28T06:11:10.480Z,25.76
2022-07-28T06:13:36.871Z,25.88
2022-07-28T06:16:03.264Z,25.95
2022-07-28T06:18:29.617Z,25.98
2022-07-28T06:20:55.989Z,26.00
2022-07-28T06:23:22.448Z,26.03
2022-07-28T06:25:48.837Z,26.09
2022-07-28T06:28:15.215Z,26.14
2022-07-28T06:30:41.667Z,26.22
2022-07-28T06:33:08.082Z,26.28
2022-07-28T06:35:45.891Z,26.33
2022-07-28T06:38:00.969Z,26.40
2022-07-28T06:40:27.368Z,26.47
2022-07-28T06:42:53.741Z,26.65
2022-07-28T06:45:21.627Z,26.70
2022-07-28T06:47:47.294Z,26.68
2022-07-28T06:50:25.207Z,26.89
2022-07-28T06:52:39.532Z,27.20
2022-07-28T06:55:05.954Z,27.36
2022-07-28T06:57:33.703Z,27.57
2022-07-28T06:59:58.832Z,27.83
2022-07-28T07:02:28.168Z,28.20
2022-07-28T07:04:51.577Z,28.55
2022-07-28T07:07:17.957Z,28.87
2022-07-28T07:09:44.337Z,29.08
2022-07-28T07:12:10.726Z,29.29
2022-07-28T07:14:37.110Z,29.43
2022-07-28T07:17:03.556Z,29.35
2022-07-28T07:19:29.912Z,29.28
2022-07-28T07:21:56.290Z,29.15
2022-07-28T07:24:22.668Z,28.96
2022-07-28T07:26:49.074Z,29.11
2022-07-28T07:29:15.457Z,29.11
2022-07-28T07:31:41.893Z,29.34
2022-07-28T07:34:08.248Z,29.25
2022-07-28T07:36:34.636Z,28.99
2022-07-28T07:39:01.151Z,28.88
2022-07-28T07:41:27.576Z,28.89
2022-07-28T07:43:53.953Z,28.97
2022-07-28T07:46:20.385Z,29.05
2022-07-28T07:48:46.781Z,29.17
2022-07-28T07:51:15.485Z,29.35
2022-07-28T07:53:39.535Z,29.60
2022-07-28T07:56:06.265Z,29.73
2022-07-28T07:58:32.633Z,30.09
2022-07-28T08:00:59.010Z,30.13
2022-07-28T08:03:26.500Z,30.17
2022-07-28T08:05:52.112Z,30.31
2022-07-28T08:08:18.491Z,30.59
2022-07-28T08:10:44.858Z,30.65
2022-07-28T08:13:11.249Z,30.86
2022-07-28T08:15:37.618Z,30.99
2022-07-28T08:18:04.007Z,30.73
2022-07-28T08:20:30.475Z,30.36
2022-07-28T08:22:56.841Z,30.17
2022-07-28T08:25:23.224Z,30.04
2022-07-28T08:27:49.642Z,29.93
2022-07-28T08:30:16.970Z,29.78
2022-07-28T08:32:42.506Z,29.61
2022-07-28T08:35:31.558Z,29.50
2022-07-28T08:37:35.301Z,29.41
2022-07-28T08:40:01.674Z,29.41
2022-07-28T08:42:28.068Z,29.42
2022-07-28T08:44:54.437Z,29.42
2022-07-28T08:47:20.815Z,29.40
2022-07-28T08:49:47.219Z,29.37
2022-07-28T08:52:13.613Z,29.36
2022-07-28T08:54:39.986Z,29.29
2022-07-28T08:57:06.369Z,29.22
2022-07-28T08:59:32.738Z,29.18
2022-07-28T09:01:59.196Z,29.17
2022-07-28T09:04:25.493Z,29.22
2022-07-28T09:06:51.863Z,29.28
2022-07-28T09:09:18.281Z,29.28
2022-07-28T09:11:44.676Z,29.31
2022-07-28T09:14:11.441Z,29.28
2022-07-28T09:16:37.446Z,29.32
2022-07-28T09:19:03.879Z,29.35
2022-07-28T09:21:30.239Z,29.40
2022-07-28T09:23:56.669Z,29.41
2022-07-28T09:26:23.030Z,29.29
2022-07-28T09:28:49.427Z,29.22
2022-07-28T09:31:16.673Z,29.27
2022-07-28T09:33:44.001Z,29.38
2022-07-28T09:36:08.747Z,29.40
2022-07-28T09:38:35.114Z,29.32
2022-07-28T09:41:01.488Z,29.20
2022-07-28T09:43:27.898Z,29.06
2022-07-28T09:45:54.310Z,28.91
2022-07-28T09:48:20.826Z,28.76
2022-07-28T09:50:47.024Z,28.65
2022-07-28T09:53:13.420Z,28.63
2022-07-28T09:55:39.794Z,28.67
2022-07-28T09:58:06.200Z,28.68
2022-07-28T10:00:32.624Z,28.77
2022-07-28T10:02:59.052Z,28.86
2022-07-28T10:05:25.411Z,29.13
2022-07-28T10:07:51.813Z,29.38
2022-07-28T10:10:18.179Z,29.60
2022-07-28T10:12:44.570Z,29.60
2022-07-28T10:15:11.016Z,29.72
2022-07-28T10:17:37.394Z,29.97
2022-07-28T10:20:03.792Z,30.61
2022-07-28T10:22:30.202Z,31.29
2022-07-28T10:24:56.589Z,31.88
2022-07-28T10:27:22.974Z,31.93
2022-07-28T10:29:49.364Z,31.76
2022-07-28T10:32:15.746Z,31.60
2022-07-28T10:34:42.136Z,31.66
2022-07-28T10:37:08.503Z,31.86
2022-07-28T10:39:34.899Z,31.86
2022-07-28T10:42:01.301Z,32.02
2022-07-28T10:44:27.690Z,31.91
2022-07-28T10:46:54.109Z,31.70
2022-07-28T10:49:20.640Z,31.66
2022-07-28T10:52:02.487Z,31.70
2022-07-28T10:54:17.501Z,31.79
2022-07-28T10:56:39.654Z,32.09
2022-07-28T10:59:06.022Z,32.37
2022-07-28T11:01:47.531Z,32.36
2022-07-28T11:03:58.929Z,32.31
2022-07-28T11:06:26.100Z,32.37
2022-07-28T11:08:51.609Z,32.88
2022-07-28T11:11:17.998Z,33.16
2022-07-28T11:13:44.402Z,33.22
2022-07-28T11:16:10.785Z,33.08
2022-07-28T11:18:37.170Z,32.89
2022-07-28T11:21:03.557Z,32.94
2022-07-28T11:23:30.431Z,32.92
2022-07-28T11:25:56.302Z,33.00
2022-07-28T11:28:22.673Z,33.14
2022-07-28T11:30:49.113Z,33.06
2022-07-28T11:33:15.487Z,33.04
2022-07-28T11:35:42.020Z,32.99
2022-07-28T11:38:08.411Z,33.07
2022-07-28T11:40:34.798Z,33.16
2022-07-28T11:43:01.175Z,33.27
2022-07-28T11:45:39.313Z,33.21
2022-07-28T11:47:53.915Z,33.19
2022-07-28T11:50:20.294Z,33.11
2022-07-28T11:52:46.830Z,33.05
2022-07-28T11:55:13.233Z,33.03
2022-07-28T11:57:39.626Z,33.03
2022-07-28T12:00:06.065Z,33.02
2022-07-28T12:02:32.619Z,33.00
2022-07-28T12:04:58.978Z,32.99
2022-07-28T12:07:25.326Z,33.10
2022-07-28T12:09:51.689Z,33.19
2022-07-28T12:12:18.080Z,33.22
2022-07-28T12:14:44.468Z,33.35
2022-07-28T12:17:10.880Z,33.35
2022-07-28T12:19:37.204Z,33.41
2022-07-28T12:22:03.591Z,33.46
2022-07-28T12:24:29.972Z,33.57
2022-07-28T12:26:56.406Z,33.64
2022-07-28T12:29:22.784Z,33.49
2022-07-28T12:31:49.298Z,33.39
2022-07-28T12:34:15.969Z,33.43
2022-07-28T12:36:42.041Z,33.38
2022-07-28T12:39:12.796Z,33.25
2022-07-28T12:41:34.785Z,33.22
2022-07-28T12:44:01.158Z,33.25
2022-07-28T12:46:28.458Z,33.29
2022-07-28T12:48:54.048Z,33.47
2022-07-28T12:51:20.398Z,33.25
2022-07-28T12:53:46.769Z,33.38
2022-07-28T12:56:13.171Z,33.37
2022-07-28T12:58:39.571Z,33.28
2022-07-28T13:01:06.019Z,33.14
2022-07-28T13:03:32.360Z,33.16
2022-07-28T13:05:58.738Z,33.14
2022-07-28T13:08:25.211Z,32.99
2022-07-28T13:10:56.649Z,32.78
2022-07-28T13:13:17.980Z,32.67
2022-07-28T13:15:44.355Z,32.58
2022-07-28T13:18:10.770Z,32.46
2022-07-28T13:20:37.167Z,32.34
2022-07-28T13:23:03.564Z,32.29
2022-07-28T13:25:29.961Z,32.28
2022-07-28T13:27:56.344Z,32.35
2022-07-28T13:30:22.742Z,32.40
2022-07-28T13:32:49.209Z,32.49
2022-07-28T13:35:15.819Z,32.56
2022-07-28T13:37:41.876Z,32.50
2022-07-28T13:40:08.332Z,32.50
2022-07-28T13:42:34.639Z,32.43
2022-07-28T13:45:01.703Z,32.38
2022-07-28T13:47:27.456Z,32.33
2022-07-28T13:49:53.961Z,32.28
2022-07-28T13:52:33.322Z,32.24
2022-07-28T13:54:46.694Z,32.26
2022-07-28T13:57:13.422Z,32.30
2022-07-28T13:59:39.447Z,32.36
2022-07-28T14:02:05.848Z,32.31
2022-07-28T14:04:32.232Z,32.22
2022-07-28T14:06:58.597Z,32.03
2022-07-28T14:09:24.990Z,31.93
2022-07-28T14:11:53.481Z,31.78
2022-07-28T14:14:20.004Z,31.78
2022-07-28T14:16:44.176Z,31.80
2022-07-28T14:19:10.543Z,31.74
2022-07-28T14:21:36.969Z,31.62
2022-07-28T14:24:03.365Z,31.51
2022-07-28T14:26:36.890Z,31.36
2022-07-28T14:28:56.206Z,31.30
2022-07-28T14:31:22.775Z,31.28
2022-07-28T14:33:54.315Z,31.27
2022-07-28T14:36:15.562Z,31.26
2022-07-28T14:38:52.955Z,31.22
2022-07-28T14:41:08.374Z,31.18
2022-07-28T14:43:34.865Z,31.14
2022-07-28T14:46:13.487Z,31.16
2022-07-28T14:48:27.729Z,31.16
2022-07-28T14:50:54.161Z,31.13
2022-07-28T14:53:20.530Z,31.04
2022-07-28T14:55:46.927Z,30.96
2022-07-28T14:58:13.349Z,30.93
2022-07-28T15:00:39.806Z,30.94
2022-07-28T15:03:06.349Z,30.87
2022-07-28T15:05:32.628Z,30.55
2022-07-28T15:07:58.993Z,30.33
2022-07-28T15:10:25.381Z,30.40
2022-07-28T15:12:51.759Z,30.43
2022-07-28T15:15:18.127Z,30.35
2022-07-28T15:17:44.530Z,30.32
2022-07-28T15:20:10.898Z,30.19
2022-07-28T15:22:37.380Z,30.23
2022-07-28T15:25:03.767Z,30.08
2022-07-28T15:27:33.354Z,29.91
2022-07-28T15:29:56.537Z,29.95
2022-07-28T15:32:24.366Z,29.88
2022-07-28T15:34:49.445Z,29.79
2022-07-28T15:37:15.881Z,29.86
2022-07-28T15:39:45.198Z,29.92
2022-07-28T15:42:08.672Z,29.95
2022-07-28T15:44:35.031Z,29.98
2022-07-28T15:47:01.476Z,29.96
2022-07-28T15:49:28.000Z,29.96
2022-07-28T15:51:54.303Z,29.96
2022-07-28T15:54:20.700Z,29.94
2022-07-28T15:56:47.091Z,29.89
2022-07-28T15:59:13.452Z,29.89
2022-07-28T16:01:44.877Z,29.77
2022-07-28T16:04:06.327Z,29.74
2022-07-28T16:06:32.736Z,29.74
2022-07-28T16:08:59.122Z,29.75
2022-07-28T16:11:25.510Z,29.73
2022-07-28T16:13:51.963Z,29.71
2022-07-28T16:16:18.413Z,29.58
2022-07-28T16:18:44.725Z,29.51
2022-07-28T16:21:11.097Z,29.51
2022-07-28T16:23:37.501Z,29.50
2022-07-28T16:26:03.868Z,29.49
2022-07-28T16:28:30.358Z,29.43
2022-07-28T16:30:56.855Z,29.40
2022-07-28T16:33:23.221Z,29.38
2022-07-28T16:35:49.730Z,29.39
2022-07-28T16:38:16.118Z,29.39
2022-07-28T16:40:42.523Z,29.36
2022-07-28T16:43:08.955Z,29.29
2022-07-28T16:45:35.400Z,29.23
2022-07-28T16:48:01.845Z,29.21
2022-07-28T16:50:28.255Z,29.21
2022-07-28T16:52:54.692Z,29.22
2022-07-28T16:55:23.563Z,29.25
2022-07-28T16:57:47.460Z,29.29
2022-07-28T17:00:13.846Z,29.30
2022-07-28T17:02:40.315Z,29.26
2022-07-28T17:05:06.777Z,29.24
2022-07-28T17:07:33.083Z,29.19
2022-07-28T17:09:59.456Z,29.16
2022-07-28T17:12:25.944Z,29.14
2022-07-28T17:14:52.332Z,29.11
2022-07-28T17:17:18.704Z,29.10
2022-07-28T17:19:45.176Z,29.07
2022-07-28T17:22:11.470Z,29.03
2022-07-28T17:24:37.853Z,28.99
2022-07-28T17:27:36.614Z,28.98
2022-07-28T17:29:30.603Z,28.95
2022-07-28T17:31:57.011Z,28.85
2022-07-28T17:34:23.375Z,28.74
2022-07-28T17:36:49.759Z,28.62
2022-07-28T17:39:16.144Z,28.53
2022-07-28T17:41:42.628Z,28.46
2022-07-28T17:44:09.003Z,28.41
2022-07-28T17:46:35.426Z,28.30
2022-07-28T17:49:01.906Z,28.07
2022-07-28T17:51:28.202Z,28.04
2022-07-28T17:53:54.830Z,28.01
2022-07-28T17:56:20.942Z,27.90
2022-07-28T17:58:47.327Z,27.92
2022-07-28T18:01:13.756Z,27.85
2022-07-28T18:03:56.522Z,27.68
2022-07-28T18:06:06.532Z,27.53
2022-07-28T18:08:32.908Z,27.40
2022-07-28T18:10:59.301Z,27.24
2022-07-28T18:13:25.687Z,27.05
2022-07-28T18:15:52.060Z,26.94
2022-07-28T18:18:18.511Z,26.63
2022-07-28T18:20:44.892Z,26.07
2022-07-28T18:23:11.260Z,25.73
2022-07-28T18:25:39.966Z,25.27
2022-07-28T18:28:04.054Z,24.85
2022-07-28T18:30:30.442Z,24.81
2022-07-28T18:32:56.830Z,24.54
2022-07-28T18:35:23.226Z,24.30
2022-07-28T18:37:49.621Z,24.18
2022-07-28T18:40:16.022Z,23.95
2022-07-28T18:42:42.539Z,23.95
2022-07-28T18:45:08.966Z,24.21
2022-07-28T18:47:35.341Z,24.34
2022-07-28T18:50:01.714Z,24.30
2022-07-28T18:52:29.087Z,24.25
2022-07-28T18:54:55.481Z,24.42
2022-07-28T18:57:21.947Z,24.59
2022-07-28T18:59:52.125Z,24.98
2022-07-28T19:02:14.806Z,25.23
2022-07-28T19:04:41.069Z,25.33
2022-07-28T19:07:07.584Z,25.36
2022-07-28T19:09:37.147Z,25.34
2022-07-28T19:12:00.567Z,25.28
2022-07-28T19:14:26.976Z,25.32
2022-07-28T19:16:53.491Z,25.39
2022-07-28T19:19:19.797Z,25.50
2022-07-28T19:21:46.283Z,25.66
2022-07-28T19:24:13.270Z,25.66
2022-07-28T19:26:39.119Z,25.71
2022-07-28T19:29:05.588Z,25.69
2022-07-28T19:31:32.002Z,25.66
2022-07-28T19:33:58.451Z,25.56
2022-07-28T19:36:24.891Z,25.55
2022-07-28T19:38:51.282Z,25.59
2022-07-28T19:41:17.649Z,25.65
2022-07-28T19:43:44.034Z,25.66
2022-07-28T19:46:10.545Z,25.67
2022-07-28T19:48:36.983Z,25.74
2022-07-28T19:51:03.374Z,25.93
2022-07-28T19:53:32.254Z,26.04
2022-07-28T19:55:56.618Z,26.11
2022-07-28T19:58:22.984Z,26.28
2022-07-28T20:00:49.411Z,26.41
2022-07-28T20:04:01.862Z,26.33
2022-07-28T20:05:42.178Z,26.18
2022-07-28T20:08:08.564Z,26.04
2022-07-28T20:10:35.403Z,26.03
2022-07-28T20:13:01.897Z,26.07
2022-07-28T20:15:28.267Z,26.19
2022-07-28T20:17:54.702Z,26.30
2022-07-28T20:20:21.199Z,26.38
2022-07-28T20:22:47.634Z,26.49
2022-07-28T20:25:14.003Z,26.42
2022-07-28T20:27:41.168Z,26.66
2022-07-28T20:30:06.816Z,26.67
2022-07-28T20:32:33.176Z,26.69
2022-07-28T20:34:59.588Z,26.69
2022-07-28T20:37:35.846Z,26.70
2022-07-28T20:39:52.310Z,26.55
2022-07-28T20:42:18.728Z,26.31
2022-07-28T20:44:45.101Z,26.11
2022-07-28T20:47:11.483Z,26.02
2022-07-28T20:49:37.976Z,25.99
2022-07-28T20:52:04.372Z,25.85
2022-07-28T20:54:30.758Z,25.74
2022-07-28T20:56:57.178Z,25.59
2022-07-28T20:59:27.623Z,25.55
2022-07-28T21:01:50.211Z,25.44
2022-07-28T21:04:16.833Z,25.34
2022-07-28T21:06:51.123Z,25.32
2022-07-28T21:09:09.474Z,25.34
2022-07-28T21:11:36.043Z,25.25
2022-07-28T21:14:02.429Z,25.21
2022-07-28T21:16:28.908Z,25.29
2022-07-28T21:18:55.255Z,25.43
2022-07-28T21:21:21.705Z,25.39
2022-07-28T21:23:48.078Z,25.32
2022-07-28T21:26:14.495Z,25.29
2022-07-28T21:28:40.868Z,25.29
2022-07-28T21:31:07.257Z,25.21
2022-07-28T21:33:33.727Z,25.15
2022-07-28T21:36:00.048Z,25.21
2022-07-28T21:38:26.416Z,25.17
2022-07-28T21:40:52.875Z,25.12
2022-07-28T21:43:19.193Z,25.02
2022-07-28T21:45:45.674Z,25.06
2022-07-28T21:48:11.942Z,25.06
2022-07-28T21:50:38.415Z,25.03
2022-07-28T21:53:04.764Z,24.95
2022-07-28T21:55:31.258Z,24.87
2022-07-28T21:57:57.636Z,24.80
2022-07-28T22:00:24.096Z,24.73
2022-07-28T22:02:50.548Z,24.59
2022-07-28T22:05:16.984Z,24.49
2022-07-28T22:07:43.312Z,24.45
2022-07-28T22:10:09.671Z,24.46
2022-07-28T22:12:36.051Z,24.47
2022-07-28T22:15:02.441Z,24.47
2022-07-28T22:17:28.828Z,24.39
2022-07-28T22:19:55.227Z,24.27
2022-07-28T22:22:21.640Z,24.12
2022-07-28T22:24:48.147Z,24.00
2022-07-28T22:27:14.508Z,23.82
2022-07-28T22:29:43.451Z,23.83
2022-07-28T22:32:07.335Z,23.87
2022-07-28T22:34:33.673Z,23.88
2022-07-28T22:37:00.057Z,23.86
2022-07-28T22:39:26.423Z,23.84
2022-07-28T22:41:52.803Z,23.82
2022-07-28T22:44:19.605Z,23.79
2022-07-28T22:46:45.586Z,23.75
2022-07-28T22:49:11.994Z,23.69
2022-07-28T22:51:38.323Z,23.63
2022-07-28T22:54:04.734Z,23.62
2022-07-28T22:56:34.970Z,23.61
2022-07-28T22:58:57.594Z,23.57
2022-07-28T23:01:24.029Z,23.57
2022-07-28T23:03:50.373Z,23.52
2022-07-28T23:06:16.728Z,23.47
2022-07-28T23:08:43.122Z,23.34
2022-07-28T23:11:09.485Z,23.30
2022-07-28T23:13:35.887Z,23.00
2022-07-28T23:16:02.303Z,23.04
2022-07-28T23:18:28.645Z,23.12
2022-07-28T23:20:55.215Z,23.17
2022-07-28T23:23:21.585Z,23.22
2022-07-28T23:25:48.053Z,23.24
2022-07-28T23:28:14.489Z,23.20
2022-07-28T23:30:41.053Z,23.20
2022-07-28T23:33:07.460Z,22.97
2022-07-28T23:35:33.824Z,22.84
2022-07-28T23:38:00.252Z,22.78
2022-07-28T23:40:26.651Z,22.41
2022-07-28T23:42:53.012Z,22.53
2022-07-28T23:45:19.415Z,22.70
2022-07-28T23:47:45.799Z,22.44
2022-07-28T23:50:12.278Z,22.27
2022-07-28T23:52:38.717Z,22.27
2022-07-28T23:55:05.078Z,22.53
2022-07-28T23:57:31.819Z,22.69
2022-07-28T23:59:58.119Z,22.86
